createdAt,value
2018-01-22T00:00:10.140Z,96784.36
2018-01-22T00:02:36.099Z,96791.22
2018-01-22T00:05:02.256Z,96789.48
2018-01-22T00:07:28.329Z,96789.03
2018-01-22T00:09:54.388Z,96790.27
2018-01-22T00:12:20.388Z,96788.01
2018-01-22T00:14:46.415Z,96783.11
2018-01-22T00:17:12.453Z,96767.27
2018-01-22T00:19:38.477Z,96773.80
2018-01-22T00:22:04.537Z,96773.41
2018-01-22T00:24:30.564Z,96769.37
2018-01-22T00:26:56.585Z,96777.61
2018-01-22T00:29:22.561Z,96765.97
2018-01-22T00:31:48.557Z,96749.25
2018-01-22T00:34:14.604Z,96738.56
2018-01-22T00:36:40.692Z,96749.11
2018-01-22T00:39:06.740Z,96742.84
2018-01-22T00:41:32.769Z,96742.77
2018-01-22T00:43:58.765Z,96753.91
2018-01-22T00:46:24.880Z,96740.95
2018-01-22T00:48:50.885Z,96735.19
2018-01-22T00:51:16.928Z,96741.08
2018-01-22T00:53:42.955Z,96747.55
2018-01-22T00:56:08.988Z,96737.70
2018-01-22T00:58:35.016Z,96735.97
2018-01-22T01:01:01.033Z,96717.70
2018-01-22T01:03:27.058Z,96718.70
2018-01-22T01:05:53.056Z,96705.28
2018-01-22T01:08:19.017Z,96694.08
2018-01-22T01:10:45.062Z,96696.88
2018-01-22T01:13:11.112Z,96698.39
2018-01-22T01:15:37.134Z,96686.34
2018-01-22T01:18:03.088Z,96692.67
2018-01-22T01:20:29.112Z,96690.33
2018-01-22T01:22:55.156Z,96685.81
2018-01-22T01:25:21.216Z,96694.30
2018-01-22T01:27:47.299Z,96693.09
2018-01-22T01:30:13.376Z,96687.90
2018-01-22T01:32:39.380Z,96683.05
2018-01-22T01:35:05.392Z,96671.36
2018-01-22T01:37:31.438Z,96670.17
2018-01-22T01:39:57.392Z,96666.31
2018-01-22T01:42:23.451Z,96664.50
2018-01-22T01:44:49.424Z,96655.86
2018-01-22T01:47:15.481Z,96659.28
2018-01-22T01:49:41.524Z,96659.52
2018-01-22T01:52:07.596Z,96664.70
2018-01-22T01:54:33.584Z,96655.55
2018-01-22T01:56:59.608Z,96645.77
2018-01-22T01:59:25.596Z,96646.38
2018-01-22T02:01:51.612Z,96646.47
2018-01-22T02:04:17.637Z,96637.80
2018-01-22T02:06:43.696Z,96631.22
2018-01-22T02:09:09.724Z,96642.42
2018-01-22T02:11:35.731Z,96636.98
2018-01-22T02:14:01.848Z,96629.37
2018-01-22T02:16:34.936Z,96631.02
2018-01-22T02:19:00.956Z,96640.28
2018-01-22T02:21:26.976Z,96636.64
2018-01-22T02:23:52.980Z,96627.47
2018-01-22T02:26:18.980Z,96617.63
2018-01-22T02:28:45.013Z,96622.23
2018-01-22T02:31:11.043Z,96626.78
2018-01-22T02:33:37.081Z,96635.40
2018-01-22T02:36:03.060Z,96629.41
2018-01-22T02:38:29.145Z,96631.31
2018-01-22T02:40:55.172Z,96626.45
2018-01-22T02:43:21.199Z,96626.38
2018-01-22T02:45:47.252Z,96617.48
2018-01-22T02:48:13.333Z,96613.80
2018-01-22T02:50:39.356Z,96611.34
2018-01-22T02:53:05.401Z,96606.95
2018-01-22T02:55:31.376Z,96590.67
2018-01-22T02:57:57.428Z,96591.39
2018-01-22T03:00:23.488Z,96582.86
2018-01-22T03:02:49.868Z,96580.01
2018-01-22T03:05:15.979Z,96581.36
2018-01-22T03:07:42.017Z,96568.84
2018-01-22T03:10:08.016Z,96572.14
2018-01-22T03:12:34.061Z,96572.92
2018-01-22T03:15:00.129Z,96570.73
2018-01-22T03:17:26.185Z,96570.53
2018-01-22T03:19:52.722Z,96559.58
2018-01-22T03:22:18.744Z,96553.30
2018-01-22T03:24:44.744Z,96545.75
2018-01-22T03:27:10.776Z,96542.41
2018-01-22T03:29:36.789Z,96544.62
2018-01-22T03:32:02.791Z,96527.22
2018-01-22T03:34:28.793Z,96524.37
2018-01-22T03:36:54.920Z,96510.34
2018-01-22T03:39:20.937Z,96510.73
2018-01-22T03:41:46.929Z,96513.09
2018-01-22T03:44:13.005Z,96496.98
2018-01-22T03:46:39.036Z,96499.91
2018-01-22T03:49:05.132Z,96505.45
2018-01-22T03:51:31.141Z,96523.88
2018-01-22T03:53:57.189Z,96532.12
2018-01-22T03:56:23.216Z,96531.68
2018-01-22T03:58:49.147Z,96527.01
2018-01-22T04:01:15.129Z,96528.83
2018-01-22T04:03:41.159Z,96531.36
2018-01-22T04:06:07.168Z,96534.13
2018-01-22T04:08:33.199Z,96528.58
2018-01-22T04:10:59.204Z,96513.27
2018-01-22T04:13:25.228Z,96506.98
2018-01-22T04:15:51.231Z,96503.01
2018-01-22T04:18:17.276Z,96487.75
2018-01-22T04:20:43.336Z,96489.45
2018-01-22T04:23:09.324Z,96497.34
2018-01-22T04:25:35.374Z,96507.80
2018-01-22T04:28:01.396Z,96505.86
2018-01-22T04:30:27.451Z,96505.09
2018-01-22T04:32:53.509Z,96503.28
2018-01-22T04:35:19.551Z,96503.20
2018-01-22T04:37:45.643Z,96494.55
2018-01-22T04:40:11.693Z,96498.97
2018-01-22T04:42:37.714Z,96483.72
2018-01-22T04:45:04.366Z,96481.02
2018-01-22T04:47:30.372Z,96485.68
2018-01-22T04:49:56.400Z,96480.81
2018-01-22T04:52:29.352Z,96479.61
2018-01-22T04:54:55.384Z,96474.89
2018-01-22T04:57:21.384Z,96463.73
2018-01-22T04:59:47.457Z,96464.39
2018-01-22T05:02:13.468Z,96458.54
2018-01-22T05:04:39.532Z,96458.67
2018-01-22T05:07:05.548Z,96448.27
2018-01-22T05:09:31.660Z,96445.31
2018-01-22T05:11:57.687Z,96446.08
2018-01-22T05:14:23.697Z,96446.48
2018-01-22T05:16:49.721Z,96449.08
2018-01-22T05:19:15.737Z,96458.09
2018-01-22T05:21:41.747Z,96451.39
2018-01-22T05:24:07.766Z,96447.39
2018-01-22T05:26:33.857Z,96440.28
2018-01-22T05:28:59.892Z,96440.23
2018-01-22T05:31:25.902Z,96436.07
2018-01-22T05:33:51.936Z,96435.57
2018-01-22T05:36:17.950Z,96441.01
2018-01-22T05:38:44.072Z,96435.42
2018-01-22T05:41:10.084Z,96435.16
2018-01-22T05:43:36.105Z,96436.84
2018-01-22T05:46:02.147Z,96446.09
2018-01-22T05:48:28.173Z,96442.57
2018-01-22T05:50:54.207Z,96439.44
2018-01-22T05:53:20.224Z,96438.55
2018-01-22T05:55:46.299Z,96436.98
2018-01-22T05:58:12.371Z,96433.09
2018-01-22T06:00:38.380Z,96431.27
2018-01-22T06:03:04.383Z,96422.18
2018-01-22T06:05:30.403Z,96413.62
2018-01-22T06:07:56.597Z,96414.09
2018-01-22T06:10:22.629Z,96414.00
2018-01-22T06:12:48.632Z,96407.52
2018-01-22T06:15:14.748Z,96401.80
2018-01-22T06:17:40.824Z,96389.68
2018-01-22T06:20:06.900Z,96386.17
2018-01-22T06:22:32.921Z,96388.82
2018-01-22T06:24:58.969Z,96385.44
2018-01-22T06:27:25.012Z,96375.45
2018-01-22T06:29:51.012Z,96359.61
2018-01-22T06:32:17.071Z,96360.64
2018-01-22T06:34:43.096Z,96373.11
2018-01-22T06:37:09.164Z,96381.89
2018-01-22T06:39:35.220Z,96382.28
2018-01-22T06:42:01.196Z,96385.66
2018-01-22T06:44:27.221Z,96388.69
2018-01-22T06:46:53.234Z,96378.97
2018-01-22T06:49:19.261Z,96378.44
2018-01-22T06:51:45.389Z,96363.64
2018-01-22T06:54:11.417Z,96353.89
2018-01-22T06:56:37.427Z,96351.16
2018-01-22T06:59:03.466Z,96339.73
2018-01-22T07:01:29.516Z,96336.89
2018-01-22T07:03:55.488Z,96341.13
2018-01-22T07:06:21.625Z,96333.34
2018-01-22T07:08:47.729Z,96334.55
2018-01-22T07:11:13.741Z,96337.02
2018-01-22T07:13:39.756Z,96338.32
2018-01-22T07:16:05.811Z,96361.30
2018-01-22T07:18:31.795Z,96368.30
2018-01-22T07:20:57.820Z,96364.94
2018-01-22T07:23:23.888Z,96356.40
2018-01-22T07:25:50.000Z,96351.08
2018-01-22T07:28:16.006Z,96361.34
2018-01-22T07:30:42.026Z,96358.91
2018-01-22T07:33:08.063Z,96345.23
2018-01-22T07:35:34.087Z,96356.05
2018-01-22T07:38:00.136Z,96354.75
2018-01-22T07:40:26.161Z,96356.05
2018-01-22T07:42:52.167Z,96359.04
2018-01-22T07:45:18.335Z,96350.20
2018-01-22T07:47:44.390Z,96354.23
2018-01-22T07:50:10.483Z,96349.95
2018-01-22T07:52:36.620Z,96360.50
2018-01-22T07:55:02.785Z,96356.95
2018-01-22T07:57:28.948Z,96357.90
2018-01-22T07:59:55.014Z,96353.32
2018-01-22T08:02:21.032Z,96350.75
2018-01-22T08:04:47.028Z,96350.10
2018-01-22T08:07:13.111Z,96351.69
2018-01-22T08:09:39.160Z,96344.80
2018-01-22T08:12:05.180Z,96356.75
2018-01-22T08:14:31.183Z,96357.14
2018-01-22T08:16:57.181Z,96345.58
2018-01-22T08:19:23.184Z,96345.45
2018-01-22T08:21:49.193Z,96345.19
2018-01-22T08:24:15.173Z,96350.64
2018-01-22T08:26:41.241Z,96353.62
2018-01-22T08:29:07.265Z,96352.86
2018-01-22T08:31:33.264Z,96350.90
2018-01-22T08:33:59.712Z,96355.86
2018-01-22T08:36:25.733Z,96359.75
2018-01-22T08:38:51.749Z,96357.53
2018-01-22T08:41:18.649Z,96355.47
2018-01-22T08:43:44.695Z,96349.75
2018-01-22T08:46:10.764Z,96349.23
2018-01-22T08:48:36.772Z,96339.21
2018-01-22T08:51:02.849Z,96335.45
2018-01-22T08:53:28.797Z,96340.52
2018-01-22T08:55:54.840Z,96334.54
2018-01-22T08:58:20.862Z,96335.17
2018-01-22T09:00:46.920Z,96344.29
2018-01-22T09:03:12.992Z,96338.05
2018-01-22T09:05:39.007Z,96336.86
2018-01-22T09:08:05.056Z,96335.17
2018-01-22T09:10:31.104Z,96331.93
2018-01-22T09:12:57.116Z,96330.52
2018-01-22T09:15:23.134Z,96329.20
2018-01-22T09:17:49.161Z,96327.39
2018-01-22T09:20:15.188Z,96327.13
2018-01-22T09:22:41.263Z,96316.84
2018-01-22T09:25:07.244Z,96313.06
2018-01-22T09:27:33.215Z,96311.36
2018-01-22T09:29:59.284Z,96308.88
2018-01-22T09:32:25.352Z,96304.53
2018-01-22T09:35:08.010Z,96307.97
2018-01-22T09:37:34.146Z,96293.55
2018-01-22T09:40:00.204Z,96297.83
2018-01-22T09:42:26.294Z,96287.97
2018-01-22T09:44:52.309Z,96285.23
2018-01-22T09:47:18.281Z,96283.53
2018-01-22T09:49:44.301Z,96277.30
2018-01-22T09:52:10.251Z,96263.47
2018-01-22T09:54:36.260Z,96265.61
2018-01-22T09:57:02.287Z,96259.56
2018-01-22T09:59:28.319Z,96249.23
2018-01-22T10:02:10.293Z,96237.93
2018-01-22T10:04:36.468Z,96245.28
2018-01-22T10:07:02.529Z,96254.20
2018-01-22T10:09:28.545Z,96245.33
2018-01-22T10:11:54.564Z,96245.08
2018-01-22T10:14:20.717Z,96242.45
2018-01-22T10:16:46.739Z,96233.55
2018-01-22T10:19:12.848Z,96234.09
2018-01-22T10:21:38.921Z,96224.59
2018-01-22T10:24:04.928Z,96223.80
2018-01-22T10:26:31.014Z,96217.91
2018-01-22T10:28:57.076Z,96214.50
2018-01-22T10:31:23.076Z,96223.08
2018-01-22T10:33:49.157Z,96220.34
2018-01-22T10:36:15.135Z,96225.72
2018-01-22T10:38:41.149Z,96230.58
2018-01-22T10:41:07.234Z,96211.63
2018-01-22T10:43:33.252Z,96211.95
2018-01-22T10:45:59.280Z,96204.39
2018-01-22T10:48:25.280Z,96201.80
2018-01-22T10:50:51.292Z,96198.44
2018-01-22T10:53:17.336Z,96194.45
2018-01-22T10:55:43.324Z,96189.80
2018-01-22T10:58:09.359Z,96180.38
2018-01-22T11:00:35.379Z,96170.41
2018-01-22T11:03:01.367Z,96169.41
2018-01-22T11:05:27.392Z,96172.61
2018-01-22T11:07:53.405Z,96159.31
2018-01-22T11:10:19.529Z,96165.41
2018-01-22T11:12:45.521Z,96162.83
2018-01-22T11:15:11.549Z,96158.72
2018-01-22T11:17:37.604Z,96159.84
2018-01-22T11:20:04.604Z,96162.12
2018-01-22T11:22:30.589Z,96160.98
2018-01-22T11:24:56.611Z,96162.25
2018-01-22T11:27:22.648Z,96159.90
2018-01-22T11:29:48.665Z,96163.36
2018-01-22T11:32:14.684Z,96166.58
2018-01-22T11:34:40.742Z,96171.73
2018-01-22T11:37:06.769Z,96179.34
2018-01-22T11:39:32.827Z,96169.42
2018-01-22T11:41:58.871Z,96171.48
2018-01-22T11:44:24.905Z,96160.16
2018-01-22T11:46:50.940Z,96146.06
2018-01-22T11:49:16.972Z,96138.02
2018-01-22T11:51:43.052Z,96129.87
2018-01-22T11:54:09.057Z,96130.18
2018-01-22T11:56:35.052Z,96125.82
2018-01-22T11:59:01.093Z,96127.44
2018-01-22T12:01:27.153Z,96118.98
2018-01-22T12:03:53.168Z,96124.88
2018-01-22T12:06:19.231Z,96124.77
2018-01-22T12:08:45.226Z,96130.20
2018-01-22T12:11:11.252Z,96130.87
2018-01-22T12:13:37.224Z,96126.94
2018-01-22T12:16:03.263Z,96121.28
2018-01-22T12:18:29.313Z,96115.28
2018-01-22T12:20:55.372Z,96118.53
2018-01-22T12:23:21.369Z,96111.48
2018-01-22T12:25:47.403Z,96109.10
2018-01-22T12:28:13.460Z,96109.72
2018-01-22T12:30:39.450Z,96105.01
2018-01-22T12:33:05.517Z,96100.51
2018-01-22T12:35:31.489Z,96097.55
2018-01-22T12:37:57.413Z,96097.30
2018-01-22T12:40:23.413Z,96099.59
2018-01-22T12:42:49.425Z,96091.28
2018-01-22T12:45:15.472Z,96102.82
2018-01-22T12:47:41.499Z,96106.33
2018-01-22T12:50:07.604Z,96108.50
2018-01-22T12:52:33.592Z,96111.02
2018-01-22T12:54:59.560Z,96107.25
2018-01-22T12:57:25.600Z,96098.45
2018-01-22T12:59:51.617Z,96094.87
2018-01-22T13:02:17.621Z,96102.27
2018-01-22T13:04:43.641Z,96111.08
2018-01-22T13:07:09.651Z,96115.06
2018-01-22T13:09:35.683Z,96110.02
2018-01-22T13:12:01.681Z,96114.97
2018-01-22T13:14:27.817Z,96101.47
2018-01-22T13:16:53.892Z,96087.70
2018-01-22T13:19:19.888Z,96096.05
2018-01-22T13:21:45.957Z,96094.08
2018-01-22T13:24:11.962Z,96094.72
2018-01-22T13:26:38.021Z,96094.23
2018-01-22T13:29:04.044Z,96108.07
2018-01-22T13:31:30.116Z,96108.48
2018-01-22T13:33:56.281Z,96104.61
2018-01-22T13:36:22.316Z,96098.09
2018-01-22T13:38:48.385Z,96097.70
2018-01-22T13:41:14.432Z,96105.03
2018-01-22T13:43:40.436Z,96108.78
2018-01-22T13:46:06.416Z,96113.89
2018-01-22T13:48:32.437Z,96098.73
2018-01-22T13:50:58.465Z,96113.28
2018-01-22T13:53:24.506Z,96120.36
2018-01-22T13:55:50.568Z,96120.55
2018-01-22T13:58:16.585Z,96118.72
2018-01-22T14:00:42.698Z,96128.66
2018-01-22T14:03:08.712Z,96122.73
2018-01-22T14:05:34.740Z,96126.23
2018-01-22T14:08:00.785Z,96140.02
2018-01-22T14:10:27.352Z,96140.41
2018-01-22T14:12:53.532Z,96142.36
2018-01-22T14:15:19.545Z,96126.48
2018-01-22T14:17:45.545Z,96121.92
2018-01-22T14:20:11.581Z,96129.29
2018-01-22T14:22:37.633Z,96122.03
2018-01-22T14:25:03.872Z,96119.06
2018-01-22T14:27:29.904Z,96105.01
2018-01-22T14:29:55.960Z,96089.77
2018-01-22T14:32:21.985Z,96104.03
2018-01-22T14:34:48.020Z,96120.24
2018-01-22T14:37:14.080Z,96143.41
2018-01-22T14:39:40.177Z,96150.97
2018-01-22T14:42:06.242Z,96152.25
2018-01-22T14:44:32.249Z,96146.67
2018-01-22T14:46:58.256Z,96148.79
2018-01-22T14:49:24.287Z,96152.52
2018-01-22T14:51:50.332Z,96139.13
2018-01-22T14:54:16.360Z,96133.61
2018-01-22T14:56:42.397Z,96129.61
2018-01-22T14:59:08.487Z,96142.20
2018-01-22T15:01:34.496Z,96144.74
2018-01-22T15:04:00.568Z,96155.22
2018-01-22T15:06:26.702Z,96156.80
2018-01-22T15:08:52.761Z,96156.09
2018-01-22T15:11:18.801Z,96154.39
2018-01-22T15:13:44.828Z,96149.30
2018-01-22T15:16:10.881Z,96150.13
2018-01-22T15:18:36.892Z,96139.16
2018-01-22T15:21:02.969Z,96137.23
2018-01-22T15:23:29.076Z,96140.44
2018-01-22T15:25:55.127Z,96138.26
2018-01-22T15:28:21.197Z,96131.32
2018-01-22T15:30:47.324Z,96140.38
2018-01-22T15:33:13.364Z,96144.79
2018-01-22T15:35:39.453Z,96146.16
2018-01-22T15:38:05.460Z,96148.73
2018-01-22T15:40:31.556Z,96153.63
2018-01-22T15:42:57.535Z,96162.53
2018-01-22T15:45:23.629Z,96163.67
2018-01-22T15:47:49.640Z,96163.50
2018-01-22T15:50:15.704Z,96163.75
2018-01-22T15:52:41.708Z,96156.52
2018-01-22T15:55:07.755Z,96161.73
2018-01-22T15:57:33.837Z,96164.62
2018-01-22T15:59:59.885Z,96168.48
2018-01-22T16:02:25.921Z,96162.03
2018-01-22T16:04:52.022Z,96168.94
2018-01-22T16:07:18.060Z,96171.92
2018-01-22T16:09:44.104Z,96162.96
2018-01-22T16:12:10.113Z,96163.73
2018-01-22T16:14:36.135Z,96165.94
2018-01-22T16:17:02.196Z,96170.44
2018-01-22T16:19:28.232Z,96177.67
2018-01-22T16:21:54.253Z,96192.93
2018-01-22T16:24:20.284Z,96197.77
2018-01-22T16:26:46.354Z,96196.98
2018-01-22T16:29:12.456Z,96207.53
2018-01-22T16:31:38.517Z,96210.52
2018-01-22T16:34:04.641Z,96205.59
2018-01-22T16:36:30.786Z,96203.22
2018-01-22T16:38:56.821Z,96211.28
2018-01-22T16:41:22.930Z,96204.25
2018-01-22T16:43:49.021Z,96216.70
2018-01-22T16:46:15.046Z,96218.88
2018-01-22T16:48:41.081Z,96220.03
2018-01-22T16:51:07.163Z,96226.06
2018-01-22T16:53:33.243Z,96231.80
2018-01-22T16:55:59.334Z,96236.52
2018-01-22T16:58:25.391Z,96247.73
2018-01-22T17:00:51.465Z,96251.36
2018-01-22T17:03:17.512Z,96258.25
2018-01-22T17:05:43.643Z,96259.95
2018-01-22T17:08:09.808Z,96261.13
2018-01-22T17:10:35.848Z,96261.38
2018-01-22T17:13:01.967Z,96262.94
2018-01-22T17:15:28.032Z,96266.84
2018-01-22T17:17:54.105Z,96272.04
2018-01-22T17:20:20.176Z,96266.59
2018-01-22T17:22:46.285Z,96270.86
2018-01-22T17:25:12.328Z,96268.92
2018-01-22T17:27:38.436Z,96274.63
2018-01-22T17:30:04.689Z,96271.38
2018-01-22T17:32:30.864Z,96273.84
2018-01-22T17:34:56.890Z,96274.24
2018-01-22T17:37:23.036Z,96280.48
2018-01-22T17:39:49.068Z,96283.20
2018-01-22T17:42:15.129Z,96283.73
2018-01-22T17:44:41.238Z,96286.89
2018-01-22T17:47:07.311Z,96291.70
2018-01-22T17:49:33.398Z,96288.70
2018-01-22T17:51:59.428Z,96292.98
2018-01-22T17:54:25.482Z,96300.80
2018-01-22T17:56:51.579Z,96299.23
2018-01-22T17:59:17.673Z,96301.83
2018-01-22T18:01:43.777Z,96304.72
2018-01-22T18:04:09.822Z,96317.83
2018-01-22T18:06:35.908Z,96313.82
2018-01-22T18:09:01.985Z,96316.03
2018-01-22T18:11:28.122Z,96327.86
2018-01-22T18:13:54.174Z,96339.30
2018-01-22T18:16:20.268Z,96342.16
2018-01-22T18:18:46.837Z,96346.36
2018-01-22T18:21:12.895Z,96354.80
2018-01-22T18:23:39.020Z,96362.21
2018-01-22T18:26:05.076Z,96367.93
2018-01-22T18:28:31.126Z,96370.39
2018-01-22T18:30:57.279Z,96369.89
2018-01-22T18:33:23.356Z,96369.09
2018-01-22T18:35:49.394Z,96371.30
2018-01-22T18:38:15.454Z,96382.06
2018-01-22T18:40:41.465Z,96391.44
2018-01-22T18:43:07.531Z,96384.84
2018-01-22T18:45:33.621Z,96389.66
2018-01-22T18:47:59.793Z,96391.20
2018-01-22T18:50:25.852Z,96387.72
2018-01-22T18:52:52.102Z,96391.08
2018-01-22T18:55:18.442Z,96393.04
2018-01-22T18:57:44.816Z,96399.79
2018-01-22T19:00:11.039Z,96402.68
2018-01-22T19:02:37.082Z,96406.84
2018-01-22T19:05:03.389Z,96411.66
2018-01-22T19:07:29.434Z,96419.19
2018-01-22T19:09:55.495Z,96414.49
2018-01-22T19:12:21.665Z,96419.06
2018-01-22T19:14:47.712Z,96418.77
2018-01-22T19:17:13.771Z,96423.20
2018-01-22T19:19:39.953Z,96431.40
2018-01-22T19:22:05.993Z,96426.98
2018-01-22T19:24:32.425Z,96423.34
2018-01-22T19:26:58.480Z,96421.86
2018-01-22T19:29:24.542Z,96434.89
2018-01-22T19:31:50.640Z,96429.58
2018-01-22T19:34:16.717Z,96450.30
2018-01-22T19:36:42.870Z,96451.72
2018-01-22T19:39:09.038Z,96450.81
2018-01-22T19:41:35.184Z,96457.58
2018-01-22T19:44:02.175Z,96471.23
2018-01-22T19:46:28.238Z,96478.13
2018-01-22T19:48:54.371Z,96471.75
2018-01-22T19:51:20.520Z,96473.58
2018-01-22T19:53:46.558Z,96483.08
2018-01-22T19:56:12.639Z,96483.73
2018-01-22T19:58:38.765Z,96482.55
2018-01-22T20:01:04.818Z,96485.03
2018-01-22T20:03:30.908Z,96490.23
2018-01-22T20:05:57.075Z,96499.46
2018-01-22T20:08:23.209Z,96494.80
2018-01-22T20:10:49.218Z,96492.72
2018-01-22T20:13:15.300Z,96495.84
2018-01-22T20:15:41.396Z,96511.58
2018-01-22T20:18:07.433Z,96517.42
2018-01-22T20:20:33.464Z,96515.49
2018-01-22T20:22:59.480Z,96518.34
2018-01-22T20:25:25.569Z,96531.52
2018-01-22T20:27:51.664Z,96527.84
2018-01-22T20:30:17.704Z,96527.45
2018-01-22T20:32:43.805Z,96529.00
2018-01-22T20:35:10.300Z,96527.47
2018-01-22T20:37:36.426Z,96535.14
2018-01-22T20:40:02.459Z,96536.95
2018-01-22T20:42:28.622Z,96544.12
2018-01-22T20:44:54.640Z,96546.87
2018-01-22T20:47:20.738Z,96547.48
2018-01-22T20:49:46.772Z,96568.08
2018-01-22T20:52:12.773Z,96560.92
2018-01-22T20:54:38.794Z,96572.24
2018-01-22T20:57:04.836Z,96566.64
2018-01-22T20:59:30.861Z,96573.56
2018-01-22T21:01:56.911Z,96587.10
2018-01-22T21:04:23.005Z,96578.77
2018-01-22T21:06:49.069Z,96582.03
2018-01-22T21:09:15.126Z,96584.88
2018-01-22T21:11:41.200Z,96580.84
2018-01-22T21:14:07.659Z,96575.76
2018-01-22T21:16:33.689Z,96587.63
2018-01-22T21:18:59.688Z,96582.41
2018-01-22T21:21:25.664Z,96584.61
2018-01-22T21:23:51.745Z,96591.91
2018-01-22T21:26:17.740Z,96602.97
2018-01-22T21:28:43.836Z,96605.72
2018-01-22T21:31:09.868Z,96603.51
2018-01-22T21:33:36.312Z,96609.64
2018-01-22T21:36:02.376Z,96618.59
2018-01-22T21:38:28.336Z,96630.70
2018-01-22T21:40:54.384Z,96633.17
2018-01-22T21:43:20.389Z,96639.44
2018-01-22T21:45:46.401Z,96643.22
2018-01-22T21:48:12.443Z,96655.84
2018-01-22T21:50:38.458Z,96662.20
2018-01-22T21:53:04.410Z,96673.45
2018-01-22T21:55:30.408Z,96678.66
2018-01-22T21:57:56.476Z,96676.83
2018-01-22T22:00:22.476Z,96678.14
2018-01-22T22:02:48.547Z,96688.92
2018-01-22T22:05:14.624Z,96683.81
2018-01-22T22:07:40.658Z,96683.42
2018-01-22T22:10:06.689Z,96686.31
2018-01-22T22:12:32.712Z,96690.12
2018-01-22T22:14:58.804Z,96678.94
2018-01-22T22:17:24.876Z,96684.28
2018-01-22T22:19:51.610Z,96684.39
2018-01-22T22:22:17.592Z,96694.78
2018-01-22T22:24:43.637Z,96704.12
2018-01-22T22:27:09.757Z,96715.97
2018-01-22T22:29:35.769Z,96715.05
2018-01-22T22:32:01.850Z,96704.94
2018-01-22T22:34:27.910Z,96711.22
2018-01-22T22:36:53.924Z,96718.80
2018-01-22T22:39:19.958Z,96728.28
2018-01-22T22:41:45.996Z,96735.89
2018-01-22T22:44:12.068Z,96738.58
2018-01-22T22:46:38.100Z,96731.94
2018-01-22T22:49:04.104Z,96735.02
2018-01-22T22:51:30.147Z,96741.53
2018-01-22T22:53:56.176Z,96746.52
2018-01-22T22:56:22.936Z,96747.78
2018-01-22T22:58:49.062Z,96759.02
2018-01-22T23:01:15.029Z,96769.99
2018-01-22T23:03:41.032Z,96780.80
2018-01-22T23:06:07.036Z,96779.33
2018-01-22T23:08:33.010Z,96782.98
2018-01-22T23:10:59.030Z,96783.15
2018-01-22T23:13:25.038Z,96789.14
2018-01-22T23:15:51.063Z,96788.36
2018-01-22T23:18:17.116Z,96789.80
2018-01-22T23:20:43.173Z,96790.31
2018-01-22T23:23:09.123Z,96804.52
2018-01-22T23:25:35.160Z,96805.82
2018-01-22T23:28:01.140Z,96807.91
2018-01-22T23:30:27.248Z,96818.19
2018-01-22T23:32:53.232Z,96814.24
2018-01-22T23:35:19.260Z,96817.36
2018-01-22T23:37:45.783Z,96820.67
2018-01-22T23:40:11.835Z,96825.63
2018-01-22T23:42:37.844Z,96829.27
2018-01-22T23:45:03.877Z,96828.10
2018-01-22T23:47:29.868Z,96846.60
2018-01-22T23:49:55.978Z,96849.81
2018-01-22T23:52:21.973Z,96858.78
2018-01-22T23:54:48.001Z,96862.10
2018-01-22T23:57:14.049Z,96873.45
2018-01-22T23:59:40.076Z,96875.77
